Tropical Cyclones
[Index]
Main Index Home Page Stock Weather Photos Extreme Storms Discussion Storm News and Storm Chasing Reports Tropical Cyclones / Hurricanes / Typhoons Weather Data and Links Wild Fires / Bushfires Weather Observation Techniques Weather Picture Catalogue Tornado Pictures and Reports Stock Video Footage and DVDs for sale
Season 2001-2002 Tropical Cyclone CLAUDIA Track Map
Season 2001-2002 Summaries (Operational Data): [AU] [SIO] [SPAC] [SH]
<<- Previous TC | 2001-2002 Season | Next TC ->>

click for intensity scale information  Lat/long Grid: Show Hide

 Date Labels: Show Hide

Operational Tropical Cyclone Data : JTWC Advisories

Name: CLAUDIA
Number: 0214

11 Feb 2002 04:00 UTC to 15 Feb 2002 11:00 UTC

    date/time    lat    long     hPa   cat  kts
2002-02-11 04   19.3   156.1                             
2002-02-11 06   20.4   156.8     995    1    40          
2002-02-11 12   22.0   157.0     995    1    40          
2002-02-11 18   22.5   157.6     985    2    50          
2002-02-12 00   23.3   158.4     970    3    65          
2002-02-12 06   24.1   160.0     970    3    65          
2002-02-12 12   25.0   161.8     970    3    65          
2002-02-12 18   26.0   163.5     975    2    60          
2002-02-13 00   26.5   165.5     980    2    55          
2002-02-13 06   26.8   167.6     984    2    50          
2002-02-13 12   27.0   169.0     986    2    50          
2002-02-13 17   27.2   172.0     994    1    35          
2002-02-13 23   27.2   172.5     999         30          
2002-02-14 05   27.0   176.4     998         30          
2002-02-14 11   27.9   179.5    1000         30          
2002-02-14 17   27.7   180.0    1000         30          
2002-02-14 23   29.7   178.1W    999         30          
2002-02-15 05   28.6   176.6W    999    1    35          
2002-02-15 11   30.5   172.7W   1000         30          
Winds are 10-min average.

Tropical cyclone tracks developed by Michael Bath using operational warnings and advisories and Google Maps.


[Australian Severe Weather index] [Copyright Notice] [Email Contacts] [Search This Site] [Privacy Policy]
Document: tropical_cyclone_claudia.htm Updated: 2 May 2017